sensor_id;sensor_type;location;lat;lon;timestamp;temperature;humidity
57709;SHT35;42558;52.388;13.390;2023-04-25T00:00:35;8.11;73.79
57709;SHT35;42558;52.388;13.390;2023-04-25T00:03:04;8.10;73.58
57709;SHT35;42558;52.388;13.390;2023-04-25T00:05:35;8.02;73.66
57709;SHT35;42558;52.388;13.390;2023-04-25T00:08:06;8.02;73.02
57709;SHT35;42558;52.388;13.390;2023-04-25T00:10:36;7.99;72.93
57709;SHT35;42558;52.388;13.390;2023-04-25T00:13:06;7.98;72.71
57709;SHT35;42558;52.388;13.390;2023-04-25T00:15:37;7.92;72.78
57709;SHT35;42558;52.388;13.390;2023-04-25T00:18:08;7.92;72.79
57709;SHT35;42558;52.388;13.390;2023-04-25T00:20:38;7.89;72.84
57709;SHT35;42558;52.388;13.390;2023-04-25T00:23:08;7.88;72.98
57709;SHT35;42558;52.388;13.390;2023-04-25T00:25:37;7.83;73.36
57709;SHT35;42558;52.388;13.390;2023-04-25T00:28:07;7.81;73.40
57709;SHT35;42558;52.388;13.390;2023-04-25T00:30:37;7.82;73.44
57709;SHT35;42558;52.388;13.390;2023-04-25T00:33:09;7.79;73.82
57709;SHT35;42558;52.388;13.390;2023-04-25T00:35:39;7.78;73.95
57709;SHT35;42558;52.388;13.390;2023-04-25T00:38:09;7.78;74.07
57709;SHT35;42558;52.388;13.390;2023-04-25T00:40:39;7.83;74.14
57709;SHT35;42558;52.388;13.390;2023-04-25T00:43:09;7.91;74.03
57709;SHT35;42558;52.388;13.390;2023-04-25T00:45:39;7.95;73.94
57709;SHT35;42558;52.388;13.390;2023-04-25T00:48:10;8.00;74.00
57709;SHT35;42558;52.388;13.390;2023-04-25T00:50:41;8.07;74.20
57709;SHT35;42558;52.388;13.390;2023-04-25T00:53:17;8.10;74.18
57709;SHT35;42558;52.388;13.390;2023-04-25T00:55:47;8.12;74.31
57709;SHT35;42558;52.388;13.390;2023-04-25T00:58:20;8.14;74.31
57709;SHT35;42558;52.388;13.390;2023-04-25T01:00:51;8.20;73.68
57709;SHT35;42558;52.388;13.390;2023-04-25T01:03:22;8.24;73.61
57709;SHT35;42558;52.388;13.390;2023-04-25T01:05:52;8.25;73.59
57709;SHT35;42558;52.388;13.390;2023-04-25T01:08:23;8.24;73.59
57709;SHT35;42558;52.388;13.390;2023-04-25T01:10:54;8.22;73.77
57709;SHT35;42558;52.388;13.390;2023-04-25T01:13:24;8.17;74.14
57709;SHT35;42558;52.388;13.390;2023-04-25T01:15:54;8.17;74.10
57709;SHT35;42558;52.388;13.390;2023-04-25T01:18:24;8.17;73.74
57709;SHT35;42558;52.388;13.390;2023-04-25T01:20:54;8.18;73.72
57709;SHT35;42558;52.388;13.390;2023-04-25T01:23:25;8.18;74.11
57709;SHT35;42558;52.388;13.390;2023-04-25T01:25:53;8.17;74.25
57709;SHT35;42558;52.388;13.390;2023-04-25T01:28:21;8.15;74.28
57709;SHT35;42558;52.388;13.390;2023-04-25T01:30:50;8.15;74.07
57709;SHT35;42558;52.388;13.390;2023-04-25T01:33:18;8.13;74.26
57709;SHT35;42558;52.388;13.390;2023-04-25T01:35:50;8.12;74.37
57709;SHT35;42558;52.388;13.390;2023-04-25T01:38:18;8.09;74.43
57709;SHT35;42558;52.388;13.390;2023-04-25T01:40:46;8.06;74.30
57709;SHT35;42558;52.388;13.390;2023-04-25T01:43:21;8.06;74.14
57709;SHT35;42558;52.388;13.390;2023-04-25T01:45:51;8.02;74.51
57709;SHT35;42558;52.388;13.390;2023-04-25T01:48:21;7.99;74.54
57709;SHT35;42558;52.388;13.390;2023-04-25T01:50:51;7.95;74.76
57709;SHT35;42558;52.388;13.390;2023-04-25T01:53:21;7.93;74.93
57709;SHT35;42558;52.388;13.390;2023-04-25T01:55:52;7.91;74.88
57709;SHT35;42558;52.388;13.390;2023-04-25T01:58:21;7.89;74.90
57709;SHT35;42558;52.388;13.390;2023-04-25T02:00:51;7.84;75.00
57709;SHT35;42558;52.388;13.390;2023-04-25T02:03:21;7.83;74.95
57709;SHT35;42558;52.388;13.390;2023-04-25T02:05:51;7.81;75.30
57709;SHT35;42558;52.388;13.390;2023-04-25T02:08:21;7.78;75.38
57709;SHT35;42558;52.388;13.390;2023-04-25T02:10:51;7.77;75.49
57709;SHT35;42558;52.388;13.390;2023-04-25T02:13:21;7.75;75.63
57709;SHT35;42558;52.388;13.390;2023-04-25T02:15:51;7.75;75.40
57709;SHT35;42558;52.388;13.390;2023-04-25T02:18:21;7.74;75.29
57709;SHT35;42558;52.388;13.390;2023-04-25T02:20:51;7.72;75.36
57709;SHT35;42558;52.388;13.390;2023-04-25T02:23:20;7.69;75.50
57709;SHT35;42558;52.388;13.390;2023-04-25T02:25:50;7.66;75.71
57709;SHT35;42558;52.388;13.390;2023-04-25T02:28:23;7.66;75.73
57709;SHT35;42558;52.388;13.390;2023-04-25T02:30:55;7.65;75.84
57709;SHT35;42558;52.388;13.390;2023-04-25T02:33:25;7.62;75.65
57709;SHT35;42558;52.388;13.390;2023-04-25T02:35:54;7.63;75.46
57709;SHT35;42558;52.388;13.390;2023-04-25T02:38:24;7.62;75.78
57709;SHT35;42558;52.388;13.390;2023-04-25T02:40:54;7.61;75.97
57709;SHT35;42558;52.388;13.390;2023-04-25T02:43:23;7.59;76.04
57709;SHT35;42558;52.388;13.390;2023-04-25T02:45:51;7.59;76.18
57709;SHT35;42558;52.388;13.390;2023-04-25T02:48:19;7.59;75.86
57709;SHT35;42558;52.388;13.390;2023-04-25T02:50:48;7.61;76.03
57709;SHT35;42558;52.388;13.390;2023-04-25T02:53:16;7.63;76.10
57709;SHT35;42558;52.388;13.390;2023-04-25T02:55:45;7.62;75.81
57709;SHT35;42558;52.388;13.390;2023-04-25T02:58:13;7.63;75.59
57709;SHT35;42558;52.388;13.390;2023-04-25T03:00:42;7.66;75.71
57709;SHT35;42558;52.388;13.390;2023-04-25T03:03:10;7.66;75.70
57709;SHT35;42558;52.388;13.390;2023-04-25T03:05:38;7.67;75.43
57709;SHT35;42558;52.388;13.390;2023-04-25T03:08:07;7.70;75.48
57709;SHT35;42558;52.388;13.390;2023-04-25T03:10:35;7.71;75.25
57709;SHT35;42558;52.388;13.390;2023-04-25T03:13:04;7.70;75.36
57709;SHT35;42558;52.388;13.390;2023-04-25T03:15:32;7.71;75.58
57709;SHT35;42558;52.388;13.390;2023-04-25T03:18:01;7.71;75.72
57709;SHT35;42558;52.388;13.390;2023-04-25T03:20:29;7.70;75.65
57709;SHT35;42558;52.388;13.390;2023-04-25T03:22:57;7.71;75.69
57709;SHT35;42558;52.388;13.390;2023-04-25T03:25:26;7.72;75.65
57709;SHT35;42558;52.388;13.390;2023-04-25T03:27:55;7.71;75.71
57709;SHT35;42558;52.388;13.390;2023-04-25T03:30:23;7.68;76.00
57709;SHT35;42558;52.388;13.390;2023-04-25T03:32:51;7.67;76.02
57709;SHT35;42558;52.388;13.390;2023-04-25T03:35:20;7.68;75.68
57709;SHT35;42558;52.388;13.390;2023-04-25T03:37:48;7.70;75.76
57709;SHT35;42558;52.388;13.390;2023-04-25T03:40:17;7.73;75.69
57709;SHT35;42558;52.388;13.390;2023-04-25T03:42:45;7.73;76.12
57709;SHT35;42558;52.388;13.390;2023-04-25T03:45:13;7.69;75.83
57709;SHT35;42558;52.388;13.390;2023-04-25T03:47:42;7.69;75.73
57709;SHT35;42558;52.388;13.390;2023-04-25T03:50:10;7.71;75.60
57709;SHT35;42558;52.388;13.390;2023-04-25T03:52:39;7.72;75.56
57709;SHT35;42558;52.388;13.390;2023-04-25T03:55:07;7.73;75.56
57709;SHT35;42558;52.388;13.390;2023-04-25T03:57:36;7.72;75.53
57709;SHT35;42558;52.388;13.390;2023-04-25T04:00:04;7.72;75.22
57709;SHT35;42558;52.388;13.390;2023-04-25T04:02:33;7.73;75.49
57709;SHT35;42558;52.388;13.390;2023-04-25T04:05:01;7.74;75.87
57709;SHT35;42558;52.388;13.390;2023-04-25T04:07:32;7.72;75.87
57709;SHT35;42558;52.388;13.390;2023-04-25T04:10:06;7.69;75.70
57709;SHT35;42558;52.388;13.390;2023-04-25T04:12:37;7.70;75.58
57709;SHT35;42558;52.388;13.390;2023-04-25T04:15:07;7.70;75.72
57709;SHT35;42558;52.388;13.390;2023-04-25T04:17:39;7.69;75.98
57709;SHT35;42558;52.388;13.390;2023-04-25T04:20:10;7.65;75.85
57709;SHT35;42558;52.388;13.390;2023-04-25T04:22:40;7.64;75.79
57709;SHT35;42558;52.388;13.390;2023-04-25T04:25:10;7.63;76.00
57709;SHT35;42558;52.388;13.390;2023-04-25T04:27:41;7.63;76.06
57709;SHT35;42558;52.388;13.390;2023-04-25T04:30:13;7.63;75.99
57709;SHT35;42558;52.388;13.390;2023-04-25T04:32:44;7.61;76.22
57709;SHT35;42558;52.388;13.390;2023-04-25T04:35:14;7.65;76.58
57709;SHT35;42558;52.388;13.390;2023-04-25T04:37:44;7.68;76.38
57709;SHT35;42558;52.388;13.390;2023-04-25T04:40:15;7.73;76.52
57709;SHT35;42558;52.388;13.390;2023-04-25T04:42:45;7.72;76.16
57709;SHT35;42558;52.388;13.390;2023-04-25T04:45:15;7.74;76.43
57709;SHT35;42558;52.388;13.390;2023-04-25T04:47:45;7.78;76.31
57709;SHT35;42558;52.388;13.390;2023-04-25T04:50:15;7.81;76.15
57709;SHT35;42558;52.388;13.390;2023-04-25T04:52:45;7.85;76.47
57709;SHT35;42558;52.388;13.390;2023-04-25T04:55:15;7.91;76.29
57709;SHT35;42558;52.388;13.390;2023-04-25T04:57:45;7.93;75.64
57709;SHT35;42558;52.388;13.390;2023-04-25T05:00:15;8.01;75.57
57709;SHT35;42558;52.388;13.390;2023-04-25T05:02:45;8.04;75.60
57709;SHT35;42558;52.388;13.390;2023-04-25T05:05:15;8.02;75.53
57709;SHT35;42558;52.388;13.390;2023-04-25T05:07:45;8.03;75.63
57709;SHT35;42558;52.388;13.390;2023-04-25T05:10:16;8.11;75.43
57709;SHT35;42558;52.388;13.390;2023-04-25T05:12:49;8.17;75.47
57709;SHT35;42558;52.388;13.390;2023-04-25T05:15:19;8.15;75.24
57709;SHT35;42558;52.388;13.390;2023-04-25T05:17:49;8.18;75.25
57709;SHT35;42558;52.388;13.390;2023-04-25T05:20:19;8.24;75.22
57709;SHT35;42558;52.388;13.390;2023-04-25T05:22:49;8.26;75.04
57709;SHT35;42558;52.388;13.390;2023-04-25T05:25:19;8.27;75.08
57709;SHT35;42558;52.388;13.390;2023-04-25T05:27:49;8.29;74.92
57709;SHT35;42558;52.388;13.390;2023-04-25T05:30:21;8.32;75.12
57709;SHT35;42558;52.388;13.390;2023-04-25T05:32:51;8.30;74.92
57709;SHT35;42558;52.388;13.390;2023-04-25T05:35:22;8.30;74.89
57709;SHT35;42558;52.388;13.390;2023-04-25T05:37:52;8.26;75.06
57709;SHT35;42558;52.388;13.390;2023-04-25T05:40:22;8.30;75.31
57709;SHT35;42558;52.388;13.390;2023-04-25T05:42:52;8.34;75.25
57709;SHT35;42558;52.388;13.390;2023-04-25T05:45:22;8.30;75.05
57709;SHT35;42558;52.388;13.390;2023-04-25T05:47:52;8.30;75.14
57709;SHT35;42558;52.388;13.390;2023-04-25T05:50:23;8.34;74.98
57709;SHT35;42558;52.388;13.390;2023-04-25T05:52:53;8.38;75.04
57709;SHT35;42558;52.388;13.390;2023-04-25T05:55:23;8.42;75.09
57709;SHT35;42558;52.388;13.390;2023-04-25T05:57:53;8.38;74.72
57709;SHT35;42558;52.388;13.390;2023-04-25T06:00:23;8.40;74.99
57709;SHT35;42558;52.388;13.390;2023-04-25T06:02:51;8.50;75.00
57709;SHT35;42558;52.388;13.390;2023-04-25T06:05:20;8.59;75.15
57709;SHT35;42558;52.388;13.390;2023-04-25T06:07:48;8.54;74.86
57709;SHT35;42558;52.388;13.390;2023-04-25T06:10:17;8.51;74.79
57709;SHT35;42558;52.388;13.390;2023-04-25T06:12:45;8.49;75.06
57709;SHT35;42558;52.388;13.390;2023-04-25T06:15:14;8.48;74.96
57709;SHT35;42558;52.388;13.390;2023-04-25T06:17:57;8.49;74.86
57709;SHT35;42558;52.388;13.390;2023-04-25T06:20:27;8.49;74.77
57709;SHT35;42558;52.388;13.390;2023-04-25T06:22:57;8.55;74.67
57709;SHT35;42558;52.388;13.390;2023-04-25T06:25:27;8.65;74.91
57709;SHT35;42558;52.388;13.390;2023-04-25T06:27:57;8.72;74.26
57709;SHT35;42558;52.388;13.390;2023-04-25T06:30:26;8.67;74.11
57709;SHT35;42558;52.388;13.390;2023-04-25T06:32:57;8.64;74.51
57709;SHT35;42558;52.388;13.390;2023-04-25T06:35:27;8.68;74.50
57709;SHT35;42558;52.388;13.390;2023-04-25T06:37:57;8.71;74.39
57709;SHT35;42558;52.388;13.390;2023-04-25T06:40:27;8.76;74.57
57709;SHT35;42558;52.388;13.390;2023-04-25T06:42:57;8.80;74.60
57709;SHT35;42558;52.388;13.390;2023-04-25T06:45:27;8.82;74.13
57709;SHT35;42558;52.388;13.390;2023-04-25T06:47:57;8.87;74.29
57709;SHT35;42558;52.388;13.390;2023-04-25T06:50:27;8.85;73.76
57709;SHT35;42558;52.388;13.390;2023-04-25T06:52:57;8.82;74.11
57709;SHT35;42558;52.388;13.390;2023-04-25T06:55:27;8.68;73.93
57709;SHT35;42558;52.388;13.390;2023-04-25T06:57:56;8.65;74.33
57709;SHT35;42558;52.388;13.390;2023-04-25T07:00:26;8.77;74.65
57709;SHT35;42558;52.388;13.390;2023-04-25T07:02:57;8.77;74.22
57709;SHT35;42558;52.388;13.390;2023-04-25T07:05:28;8.72;74.43
57709;SHT35;42558;52.388;13.390;2023-04-25T07:07:56;8.73;74.18
57709;SHT35;42558;52.388;13.390;2023-04-25T07:10:25;8.81;74.23
57709;SHT35;42558;52.388;13.390;2023-04-25T07:12:53;8.84;74.25
57709;SHT35;42558;52.388;13.390;2023-04-25T07:15:21;8.85;74.07
57709;SHT35;42558;52.388;13.390;2023-04-25T07:17:50;8.84;74.21
57709;SHT35;42558;52.388;13.390;2023-04-25T07:20:18;8.78;74.58
57709;SHT35;42558;52.388;13.390;2023-04-25T07:22:47;8.70;74.73
57709;SHT35;42558;52.388;13.390;2023-04-25T07:25:16;8.65;75.46
57709;SHT35;42558;52.388;13.390;2023-04-25T07:27:44;8.59;75.59
57709;SHT35;42558;52.388;13.390;2023-04-25T07:30:12;8.50;75.75
57709;SHT35;42558;52.388;13.390;2023-04-25T07:32:40;8.48;76.09
57709;SHT35;42558;52.388;13.390;2023-04-25T07:35:09;8.46;76.55
57709;SHT35;42558;52.388;13.390;2023-04-25T07:37:37;8.35;77.50
57709;SHT35;42558;52.388;13.390;2023-04-25T07:40:06;8.32;78.31
57709;SHT35;42558;52.388;13.390;2023-04-25T07:42:37;8.34;78.46
57709;SHT35;42558;52.388;13.390;2023-04-25T07:45:06;8.22;77.30
57709;SHT35;42558;52.388;13.390;2023-04-25T07:47:35;8.15;76.94
57709;SHT35;42558;52.388;13.390;2023-04-25T07:50:03;8.22;76.98
57709;SHT35;42558;52.388;13.390;2023-04-25T07:52:31;8.41;77.04
57709;SHT35;42558;52.388;13.390;2023-04-25T07:55:00;8.55;76.73
57709;SHT35;42558;52.388;13.390;2023-04-25T07:57:29;8.56;76.15
57709;SHT35;42558;52.388;13.390;2023-04-25T08:00:00;8.47;75.42
57709;SHT35;42558;52.388;13.390;2023-04-25T08:02:29;8.43;75.58
57709;SHT35;42558;52.388;13.390;2023-04-25T08:04:59;8.44;76.06
57709;SHT35;42558;52.388;13.390;2023-04-25T08:07:30;8.42;75.68
57709;SHT35;42558;52.388;13.390;2023-04-25T08:09:59;8.46;76.31
57709;SHT35;42558;52.388;13.390;2023-04-25T08:12:28;8.56;75.92
57709;SHT35;42558;52.388;13.390;2023-04-25T08:14:56;8.69;74.98
57709;SHT35;42558;52.388;13.390;2023-04-25T08:17:25;8.82;74.56
57709;SHT35;42558;52.388;13.390;2023-04-25T08:19:53;9.11;74.22
57709;SHT35;42558;52.388;13.390;2023-04-25T08:22:22;9.09;73.24
57709;SHT35;42558;52.388;13.390;2023-04-25T08:24:50;9.19;73.22
57709;SHT35;42558;52.388;13.390;2023-04-25T08:27:19;8.99;73.03
57709;SHT35;42558;52.388;13.390;2023-04-25T08:29:50;8.95;73.61
57709;SHT35;42558;52.388;13.390;2023-04-25T08:32:19;9.03;73.92
57709;SHT35;42558;52.388;13.390;2023-04-25T08:34:47;9.15;73.92
57709;SHT35;42558;52.388;13.390;2023-04-25T08:37:15;9.29;73.52
57709;SHT35;42558;52.388;13.390;2023-04-25T08:39:44;9.31;71.71
57709;SHT35;42558;52.388;13.390;2023-04-25T08:42:13;9.34;71.23
57709;SHT35;42558;52.388;13.390;2023-04-25T08:44:45;9.55;70.70
57709;SHT35;42558;52.388;13.390;2023-04-25T08:47:18;9.79;68.92
57709;SHT35;42558;52.388;13.390;2023-04-25T08:49:53;9.82;66.10
57709;SHT35;42558;52.388;13.390;2023-04-25T08:52:24;9.53;64.22
57709;SHT35;42558;52.388;13.390;2023-04-25T08:55:02;9.44;64.12
57709;SHT35;42558;52.388;13.390;2023-04-25T08:57:33;9.53;62.10
57709;SHT35;42558;52.388;13.390;2023-04-25T09:00:03;9.53;60.14
57709;SHT35;42558;52.388;13.390;2023-04-25T09:02:33;9.57;58.80
57709;SHT35;42558;52.388;13.390;2023-04-25T09:05:03;9.57;58.23
57709;SHT35;42558;52.388;13.390;2023-04-25T09:07:33;9.40;56.72
57709;SHT35;42558;52.388;13.390;2023-04-25T09:10:03;9.28;56.70
57709;SHT35;42558;52.388;13.390;2023-04-25T09:12:33;9.24;56.98
57709;SHT35;42558;52.388;13.390;2023-04-25T09:15:09;9.34;57.76
57709;SHT35;42558;52.388;13.390;2023-04-25T09:17:55;10.26;58.36
57709;SHT35;42558;52.388;13.390;2023-04-25T09:20:26;10.89;57.18
57709;SHT35;42558;52.388;13.390;2023-04-25T09:23:03;10.97;59.83
57709;SHT35;42558;52.388;13.390;2023-04-25T09:25:36;11.63;58.73
57709;SHT35;42558;52.388;13.390;2023-04-25T09:28:07;11.22;55.72
57709;SHT35;42558;52.388;13.390;2023-04-25T09:30:36;11.06;55.93
57709;SHT35;42558;52.388;13.390;2023-04-25T09:33:08;11.78;55.95
57709;SHT35;42558;52.388;13.390;2023-04-25T09:35:42;12.24;53.85
57709;SHT35;42558;52.388;13.390;2023-04-25T09:38:14;11.77;54.16
57709;SHT35;42558;52.388;13.390;2023-04-25T09:40:47;11.23;55.57
57709;SHT35;42558;52.388;13.390;2023-04-25T09:43:19;11.33;56.36
57709;SHT35;42558;52.388;13.390;2023-04-25T09:45:52;11.55;54.35
57709;SHT35;42558;52.388;13.390;2023-04-25T09:48:28;11.25;55.16
57709;SHT35;42558;52.388;13.390;2023-04-25T09:51:12;11.29;55.53
57709;SHT35;42558;52.388;13.390;2023-04-25T09:53:45;11.06;55.53
57709;SHT35;42558;52.388;13.390;2023-04-25T09:56:20;10.99;56.00
57709;SHT35;42558;52.388;13.390;2023-04-25T09:58:51;11.31;56.15
57709;SHT35;42558;52.388;13.390;2023-04-25T10:01:24;11.45;55.56
57709;SHT35;42558;52.388;13.390;2023-04-25T10:03:56;11.23;56.53
57709;SHT35;42558;52.388;13.390;2023-04-25T10:06:28;11.14;57.07
57709;SHT35;42558;52.388;13.390;2023-04-25T10:09:00;11.18;57.66
57709;SHT35;42558;52.388;13.390;2023-04-25T10:11:33;10.84;55.81
57709;SHT35;42558;52.388;13.390;2023-04-25T10:14:04;10.71;54.43
57709;SHT35;42558;52.388;13.390;2023-04-25T10:16:35;10.48;54.15
57709;SHT35;42558;52.388;13.390;2023-04-25T10:19:07;10.41;55.26
57709;SHT35;42558;52.388;13.390;2023-04-25T10:21:50;10.27;55.77
57709;SHT35;42558;52.388;13.390;2023-04-25T10:24:27;10.17;55.85
57709;SHT35;42558;52.388;13.390;2023-04-25T10:26:57;9.99;55.35
57709;SHT35;42558;52.388;13.390;2023-04-25T10:29:28;10.19;55.41
57709;SHT35;42558;52.388;13.390;2023-04-25T10:31:58;10.29;55.31
57709;SHT35;42558;52.388;13.390;2023-04-25T10:37:59;10.56;54.36
57709;SHT35;42558;52.388;13.390;2023-04-25T10:40:32;10.62;54.20
57709;SHT35;42558;52.388;13.390;2023-04-25T10:46:00;10.74;52.71
57709;SHT35;42558;52.388;13.390;2023-04-25T10:48:31;10.97;52.02
57709;SHT35;42558;52.388;13.390;2023-04-25T10:51:11;10.95;51.52
57709;SHT35;42558;52.388;13.390;2023-04-25T10:56:25;10.81;52.93
57709;SHT35;42558;52.388;13.390;2023-04-25T10:59:15;10.69;52.23
57709;SHT35;42558;52.388;13.390;2023-04-25T11:01:48;10.67;52.68
57709;SHT35;42558;52.388;13.390;2023-04-25T11:04:28;10.52;52.36
57709;SHT35;42558;52.388;13.390;2023-04-25T11:10:35;10.36;51.64
57709;SHT35;42558;52.388;13.390;2023-04-25T11:13:03;10.59;52.60
57709;SHT35;42558;52.388;13.390;2023-04-25T11:15:31;10.73;51.64
57709;SHT35;42558;52.388;13.390;2023-04-25T11:18:00;10.82;52.49
57709;SHT35;42558;52.388;13.390;2023-04-25T11:20:29;10.72;51.59
57709;SHT35;42558;52.388;13.390;2023-04-25T11:22:58;10.35;52.01
57709;SHT35;42558;52.388;13.390;2023-04-25T11:25:28;10.23;52.54
57709;SHT35;42558;52.388;13.390;2023-04-25T11:27:58;10.14;52.95
57709;SHT35;42558;52.388;13.390;2023-04-25T11:30:30;10.25;53.00
57709;SHT35;42558;52.388;13.390;2023-04-25T11:33:00;10.21;53.55
57709;SHT35;42558;52.388;13.390;2023-04-25T11:35:32;10.41;53.60
57709;SHT35;42558;52.388;13.390;2023-04-25T11:38:03;10.31;53.30
57709;SHT35;42558;52.388;13.390;2023-04-25T11:40:35;9.97;54.66
57709;SHT35;42558;52.388;13.390;2023-04-25T11:43:05;10.15;55.63
57709;SHT35;42558;52.388;13.390;2023-04-25T11:45:36;10.03;54.41
57709;SHT35;42558;52.388;13.390;2023-04-25T11:48:06;9.73;53.60
57709;SHT35;42558;52.388;13.390;2023-04-25T11:50:38;9.61;53.48
57709;SHT35;42558;52.388;13.390;2023-04-25T11:53:09;9.67;53.57
57709;SHT35;42558;52.388;13.390;2023-04-25T11:55:40;9.57;51.55
57709;SHT35;42558;52.388;13.390;2023-04-25T11:58:10;9.57;51.07
57709;SHT35;42558;52.388;13.390;2023-04-25T12:00:41;9.84;51.06
57709;SHT35;42558;52.388;13.390;2023-04-25T12:03:19;10.07;50.35
57709;SHT35;42558;52.388;13.390;2023-04-25T12:05:49;10.29;50.57
57709;SHT35;42558;52.388;13.390;2023-04-25T12:08:20;10.39;49.94
57709;SHT35;42558;52.388;13.390;2023-04-25T12:10:50;10.48;49.70
57709;SHT35;42558;52.388;13.390;2023-04-25T12:13:20;10.42;49.80
57709;SHT35;42558;52.388;13.390;2023-04-25T12:15:57;10.45;50.13
57709;SHT35;42558;52.388;13.390;2023-04-25T12:18:27;10.57;50.85
57709;SHT35;42558;52.388;13.390;2023-04-25T12:20:57;10.46;50.94
57709;SHT35;42558;52.388;13.390;2023-04-25T12:23:27;10.45;51.41
57709;SHT35;42558;52.388;13.390;2023-04-25T12:25:59;10.63;50.90
57709;SHT35;42558;52.388;13.390;2023-04-25T12:28:31;10.52;50.66
57709;SHT35;42558;52.388;13.390;2023-04-25T12:31:03;10.63;50.80
57709;SHT35;42558;52.388;13.390;2023-04-25T12:33:34;10.63;50.35
57709;SHT35;42558;52.388;13.390;2023-04-25T12:36:06;10.77;50.10
57709;SHT35;42558;52.388;13.390;2023-04-25T12:38:41;10.74;48.12
57709;SHT35;42558;52.388;13.390;2023-04-25T12:41:12;10.64;48.22
57709;SHT35;42558;52.388;13.390;2023-04-25T12:43:42;10.50;48.12
57709;SHT35;42558;52.388;13.390;2023-04-25T12:46:11;10.80;48.61
57709;SHT35;42558;52.388;13.390;2023-04-25T12:48:41;11.28;48.40
57709;SHT35;42558;52.388;13.390;2023-04-25T12:51:11;11.38;46.59
57709;SHT35;42558;52.388;13.390;2023-04-25T12:53:41;11.29;46.39
57709;SHT35;42558;52.388;13.390;2023-04-25T12:56:11;11.11;46.71
57709;SHT35;42558;52.388;13.390;2023-04-25T12:58:41;10.78;47.59
57709;SHT35;42558;52.388;13.390;2023-04-25T13:01:13;10.63;48.05
57709;SHT35;42558;52.388;13.390;2023-04-25T13:03:44;10.43;49.01
57709;SHT35;42558;52.388;13.390;2023-04-25T13:06:14;10.20;49.84
57709;SHT35;42558;52.388;13.390;2023-04-25T13:08:45;10.05;50.02
57709;SHT35;42558;52.388;13.390;2023-04-25T13:11:16;10.15;50.33
57709;SHT35;42558;52.388;13.390;2023-04-25T13:13:45;10.34;50.05
57709;SHT35;42558;52.388;13.390;2023-04-25T13:16:15;10.49;48.59
57709;SHT35;42558;52.388;13.390;2023-04-25T13:18:44;10.55;49.41
57709;SHT35;42558;52.388;13.390;2023-04-25T13:21:12;10.70;49.85
57709;SHT35;42558;52.388;13.390;2023-04-25T13:23:40;10.67;49.65
57709;SHT35;42558;52.388;13.390;2023-04-25T13:26:09;10.74;49.54
57709;SHT35;42558;52.388;13.390;2023-04-25T13:28:37;10.77;49.03
57709;SHT35;42558;52.388;13.390;2023-04-25T13:31:06;11.21;49.20
57709;SHT35;42558;52.388;13.390;2023-04-25T13:33:34;11.50;49.29
57709;SHT35;42558;52.388;13.390;2023-04-25T13:36:03;11.66;48.33
57709;SHT35;42558;52.388;13.390;2023-04-25T13:38:31;11.66;46.73
57709;SHT35;42558;52.388;13.390;2023-04-25T13:40:59;11.53;46.48
57709;SHT35;42558;52.388;13.390;2023-04-25T13:43:28;11.38;46.77
57709;SHT35;42558;52.388;13.390;2023-04-25T13:45:56;11.34;47.52
57709;SHT35;42558;52.388;13.390;2023-04-25T13:48:25;11.15;46.76
57709;SHT35;42558;52.388;13.390;2023-04-25T13:50:53;11.24;47.67
57709;SHT35;42558;52.388;13.390;2023-04-25T13:53:22;11.20;47.79
57709;SHT35;42558;52.388;13.390;2023-04-25T13:55:50;11.13;48.06
57709;SHT35;42558;52.388;13.390;2023-04-25T13:58:19;11.31;48.51
57709;SHT35;42558;52.388;13.390;2023-04-25T14:00:47;10.82;48.09
57709;SHT35;42558;52.388;13.390;2023-04-25T14:03:15;10.77;49.29
57709;SHT35;42558;52.388;13.390;2023-04-25T14:05:44;10.81;49.64
57709;SHT35;42558;52.388;13.390;2023-04-25T14:08:12;10.56;49.57
57709;SHT35;42558;52.388;13.390;2023-04-25T14:10:40;10.43;50.03
57709;SHT35;42558;52.388;13.390;2023-04-25T14:13:09;10.31;51.00
57709;SHT35;42558;52.388;13.390;2023-04-25T14:15:37;10.25;51.23
57709;SHT35;42558;52.388;13.390;2023-04-25T14:18:06;10.15;51.75
57709;SHT35;42558;52.388;13.390;2023-04-25T14:20:34;9.98;51.91
57709;SHT35;42558;52.388;13.390;2023-04-25T14:23:03;9.76;52.91
57709;SHT35;42558;52.388;13.390;2023-04-25T14:25:31;9.67;53.89
57709;SHT35;42558;52.388;13.390;2023-04-25T14:27:59;9.54;54.01
57709;SHT35;42558;52.388;13.390;2023-04-25T14:30:28;9.62;54.87
57709;SHT35;42558;52.388;13.390;2023-04-25T14:32:56;9.69;53.71
57709;SHT35;42558;52.388;13.390;2023-04-25T14:35:25;9.70;54.10
57709;SHT35;42558;52.388;13.390;2023-04-25T14:37:53;9.69;54.62
57709;SHT35;42558;52.388;13.390;2023-04-25T14:40:22;9.52;54.34
57709;SHT35;42558;52.388;13.390;2023-04-25T14:42:50;9.47;54.26
57709;SHT35;42558;52.388;13.390;2023-04-25T14:45:18;9.44;55.06
57709;SHT35;42558;52.388;13.390;2023-04-25T14:47:47;9.44;54.57
57709;SHT35;42558;52.388;13.390;2023-04-25T14:50:15;9.43;54.42
57709;SHT35;42558;52.388;13.390;2023-04-25T14:52:44;9.50;54.79
57709;SHT35;42558;52.388;13.390;2023-04-25T14:55:12;9.64;55.52
57709;SHT35;42558;52.388;13.390;2023-04-25T14:57:41;9.92;55.88
57709;SHT35;42558;52.388;13.390;2023-04-25T15:00:09;10.01;54.41
57709;SHT35;42558;52.388;13.390;2023-04-25T15:02:40;10.00;53.64
57709;SHT35;42558;52.388;13.390;2023-04-25T15:05:09;9.91;53.96
57709;SHT35;42558;52.388;13.390;2023-04-25T15:07:37;9.90;54.37
57709;SHT35;42558;52.388;13.390;2023-04-25T15:10:06;9.95;54.63
57709;SHT35;42558;52.388;13.390;2023-04-25T15:12:42;9.79;54.20
57709;SHT35;42558;52.388;13.390;2023-04-25T15:15:16;9.78;54.02
57709;SHT35;42558;52.388;13.390;2023-04-25T15:17:55;9.70;54.49
57709;SHT35;42558;52.388;13.390;2023-04-25T15:20:28;9.70;54.55
57709;SHT35;42558;52.388;13.390;2023-04-25T15:22:57;9.60;55.32
57709;SHT35;42558;52.388;13.390;2023-04-25T15:25:26;9.74;55.63
57709;SHT35;42558;52.388;13.390;2023-04-25T15:27:54;9.81;56.25
57709;SHT35;42558;52.388;13.390;2023-04-25T15:30:23;9.88;57.01
57709;SHT35;42558;52.388;13.390;2023-04-25T15:32:51;9.90;56.15
57709;SHT35;42558;52.388;13.390;2023-04-25T15:35:20;9.88;56.17
57709;SHT35;42558;52.388;13.390;2023-04-25T15:37:48;9.86;56.81
57709;SHT35;42558;52.388;13.390;2023-04-25T15:40:17;9.90;57.00
57709;SHT35;42558;52.388;13.390;2023-04-25T15:42:46;9.90;56.84
57709;SHT35;42558;52.388;13.390;2023-04-25T15:45:23;9.89;56.06
57709;SHT35;42558;52.388;13.390;2023-04-25T15:47:55;9.89;55.54
57709;SHT35;42558;52.388;13.390;2023-04-25T15:50:25;9.86;54.77
57709;SHT35;42558;52.388;13.390;2023-04-25T15:52:55;9.81;54.41
57709;SHT35;42558;52.388;13.390;2023-04-25T15:55:26;9.78;54.34
57709;SHT35;42558;52.388;13.390;2023-04-25T15:57:56;9.79;54.70